YBK weather

Baker Lake Airport
Baker Lake, Nunavut, Canada

Public forecast

Using degrees Celsius for public forecast. Weather courtesy of forecast.io.

Current aviation weather report (METAR) for Baker Lake Airport

Retrieved 2020/01/25 16:20 UTC (28 minutes ago):

CYBK 251620Z 30002KT 20SM IC SCT009 M31/M35 A3022 RMK SC4 SLP239

Aviation forecast (TAF) for Baker Lake Airport

Retrieved 2020/01/25 12:42 UTC (4 hours ago):

TAF TAF CYBK 251138Z 2512/2524 34005KT P6SM SCT008 TEMPO 2512/2516 P6SM -SN BKN008 PROB30 2512/2516 BKN006 FM251600 VRB03KT P6SM FEW010 RMK NXT FCST BY 251800Z